createdAt,value
2023-03-28T00:01:17.659Z,64.56
2023-03-28T00:03:46.576Z,64.68
2023-03-28T00:06:18.185Z,64.72
2023-03-28T00:08:47.500Z,64.66
2023-03-28T00:11:20.683Z,64.55
2023-03-28T00:13:53.080Z,64.58
2023-03-28T00:16:22.963Z,64.53
2023-03-28T00:18:51.875Z,64.54
2023-03-28T00:21:24.073Z,64.54
2023-03-28T00:23:55.474Z,64.44
2023-03-28T00:26:26.019Z,64.46
2023-03-28T00:28:55.433Z,64.48
2023-03-28T00:31:26.206Z,64.48
2023-03-28T00:33:55.663Z,64.65
2023-03-28T00:36:28.722Z,64.58
2023-03-28T00:38:58.681Z,64.38
2023-03-28T00:41:31.714Z,64.28
2023-03-28T00:44:02.055Z,64.24
2023-03-28T00:46:35.545Z,64.42
2023-03-28T00:49:11.715Z,64.60
2023-03-28T00:51:44.914Z,64.60
2023-03-28T00:54:19.224Z,64.65
2023-03-28T00:56:52.541Z,64.78
2023-03-28T00:59:26.871Z,65.14
2023-03-28T01:01:56.541Z,64.86
2023-03-28T01:04:32.742Z,64.86
2023-03-28T01:07:06.322Z,64.76
2023-03-28T01:09:38.035Z,65.02
2023-03-28T01:12:09.671Z,64.96
2023-03-28T01:14:39.463Z,65.02
2023-03-28T01:17:10.277Z,64.89
2023-03-28T01:19:58.322Z,65.00
2023-03-28T01:22:56.613Z,64.81
2023-03-28T01:26:14.409Z,64.91
2023-03-28T01:29:10.814Z,64.99
2023-03-28T01:31:59.687Z,64.79
2023-03-28T01:35:18.506Z,64.93
2023-03-28T01:37:54.022Z,64.71
2023-03-28T01:40:38.067Z,64.79
2023-03-28T01:43:24.514Z,64.75
2023-03-28T01:46:00.310Z,64.59
2023-03-28T01:48:48.769Z,64.86
2023-03-28T01:51:24.806Z,64.96
2023-03-28T01:54:01.208Z,65.25
2023-03-28T01:56:38.861Z,65.11
2023-03-28T01:59:17.628Z,64.81
2023-03-28T02:02:14.231Z,64.87
2023-03-28T02:04:48.386Z,64.99
2023-03-28T02:07:24.090Z,65.00
2023-03-28T02:10:31.002Z,64.92
2023-03-28T02:13:12.488Z,64.92
2023-03-28T02:15:50.104Z,64.91
2023-03-28T02:18:55.554Z,64.86
2023-03-28T02:21:52.202Z,64.96
2023-03-28T02:24:50.093Z,65.01
2023-03-28T02:27:54.030Z,65.09
2023-03-28T02:30:34.118Z,65.03
2023-03-28T02:33:05.212Z,65.13
2023-03-28T02:35:46.181Z,64.86
2023-03-28T02:38:23.674Z,65.06
2023-03-28T02:41:07.294Z,65.00
2023-03-28T02:43:57.242Z,64.99
2023-03-28T02:46:34.545Z,65.00
2023-03-28T02:49:26.846Z,65.09
2023-03-28T02:52:08.777Z,65.34
2023-03-28T02:54:49.592Z,65.60
2023-03-28T02:57:45.972Z,65.42
2023-03-28T03:00:18.757Z,65.37
2023-03-28T03:02:50.878Z,65.47
2023-03-28T03:05:20.457Z,65.51
2023-03-28T03:07:50.933Z,65.39
2023-03-28T03:10:21.637Z,65.40
2023-03-28T03:12:51.000Z,65.57
2023-03-28T03:15:20.831Z,65.40
2023-03-28T03:17:59.014Z,65.29
2023-03-28T03:20:32.841Z,65.37
2023-03-28T03:23:02.313Z,65.45
2023-03-28T03:25:32.397Z,65.51
2023-03-28T03:28:18.566Z,65.29
2023-03-28T03:30:48.569Z,65.57
2023-03-28T03:33:23.920Z,65.45
2023-03-28T03:35:59.371Z,65.44
2023-03-28T03:38:30.442Z,65.59
2023-03-28T03:40:59.837Z,65.69
2023-03-28T03:43:29.418Z,65.85
2023-03-28T03:46:04.053Z,66.13
2023-03-28T03:48:33.582Z,65.97
2023-03-28T03:51:03.969Z,65.66
2023-03-28T03:53:35.047Z,65.76
2023-03-28T03:56:09.618Z,65.96
2023-03-28T03:59:00.420Z,66.11
2023-03-28T04:01:39.500Z,66.11
2023-03-28T04:04:29.202Z,66.18
2023-03-28T04:07:13.671Z,66.14
2023-03-28T04:09:47.087Z,66.26
2023-03-28T04:12:18.502Z,66.09
2023-03-28T04:14:57.761Z,66.04
2023-03-28T04:17:40.968Z,66.07
2023-03-28T04:20:16.716Z,66.00
2023-03-28T04:23:19.855Z,65.99
2023-03-28T04:25:49.837Z,66.09
2023-03-28T04:28:29.694Z,66.28
2023-03-28T04:31:06.727Z,66.16
2023-03-28T04:33:53.923Z,66.36
2023-03-28T04:36:25.248Z,66.28
2023-03-28T04:39:02.449Z,66.50
2023-03-28T04:42:09.493Z,66.52
2023-03-28T04:45:18.337Z,66.46
2023-03-28T04:47:48.395Z,66.47
2023-03-28T04:50:19.705Z,66.56
2023-03-28T04:52:48.642Z,66.57
2023-03-28T04:55:19.481Z,66.57
2023-03-28T04:57:49.841Z,66.63
2023-03-28T05:00:23.191Z,66.53
2023-03-28T05:03:13.598Z,66.60
2023-03-28T05:05:53.587Z,66.53
2023-03-28T05:08:24.660Z,66.62
2023-03-28T05:10:54.720Z,66.60
2023-03-28T05:13:25.537Z,66.59
2023-03-28T05:16:04.111Z,66.72
2023-03-28T05:19:06.800Z,66.80
2023-03-28T05:21:54.280Z,66.72
2023-03-28T05:24:23.829Z,66.96
2023-03-28T05:26:53.539Z,67.08
2023-03-28T05:29:25.318Z,67.07
2023-03-28T05:31:54.431Z,67.21
2023-03-28T05:34:29.509Z,67.16
2023-03-28T05:36:58.878Z,67.04
2023-03-28T05:39:33.630Z,66.95
2023-03-28T05:42:08.653Z,66.94
2023-03-28T05:44:38.526Z,66.93
2023-03-28T05:47:27.179Z,67.10
2023-03-28T05:49:56.075Z,67.03
2023-03-28T05:52:26.189Z,66.96
2023-03-28T05:54:55.604Z,67.06
2023-03-28T05:57:26.763Z,66.97
2023-03-28T05:59:55.821Z,67.06
2023-03-28T06:02:25.144Z,66.98
2023-03-28T06:04:59.590Z,66.84
2023-03-28T06:07:41.282Z,66.93
2023-03-28T06:10:15.153Z,67.12
2023-03-28T06:12:50.699Z,67.10
2023-03-28T06:15:20.189Z,67.10
2023-03-28T06:17:49.363Z,67.13
2023-03-28T06:20:19.673Z,66.95
2023-03-28T06:22:49.166Z,67.12
2023-03-28T06:25:18.267Z,67.19
2023-03-28T06:27:46.869Z,67.22
2023-03-28T06:30:18.512Z,67.15
2023-03-28T06:32:50.612Z,67.12
2023-03-28T06:35:20.748Z,67.34
2023-03-28T06:37:49.894Z,67.37
2023-03-28T06:40:26.307Z,67.33
2023-03-28T06:42:55.064Z,67.33
2023-03-28T06:45:44.320Z,67.41
2023-03-28T06:48:17.839Z,67.41
2023-03-28T06:51:06.288Z,67.49
2023-03-28T06:53:35.573Z,67.55
2023-03-28T06:56:06.281Z,67.55
2023-03-28T06:58:34.995Z,67.55
2023-03-28T07:01:12.837Z,67.61
2023-03-28T07:04:03.956Z,67.80
2023-03-28T07:06:33.113Z,67.90
2023-03-28T07:09:03.401Z,67.77
2023-03-28T07:11:44.007Z,67.58
2023-03-28T07:14:12.996Z,67.81
2023-03-28T07:16:43.454Z,67.87
2023-03-28T07:19:12.559Z,67.74
2023-03-28T07:21:43.771Z,67.73
2023-03-28T07:24:12.766Z,67.67
2023-03-28T07:27:14.952Z,67.82
2023-03-28T07:29:46.998Z,67.96
2023-03-28T07:32:17.581Z,67.93
2023-03-28T07:34:48.108Z,67.89
2023-03-28T07:37:22.795Z,68.05
2023-03-28T07:39:57.700Z,68.03
2023-03-28T07:42:28.398Z,68.01
2023-03-28T07:44:57.439Z,67.99
2023-03-28T07:47:26.170Z,68.03
2023-03-28T07:49:55.193Z,67.93
2023-03-28T07:52:24.381Z,68.05
2023-03-28T07:54:53.452Z,68.18
2023-03-28T07:57:22.805Z,68.13
2023-03-28T08:00:22.518Z,68.08
2023-03-28T08:02:58.140Z,68.26
2023-03-28T08:05:27.253Z,68.19
2023-03-28T08:07:57.969Z,68.36
2023-03-28T08:10:26.966Z,68.46
2023-03-28T08:12:56.006Z,68.31
2023-03-28T08:15:24.894Z,68.29
2023-03-28T08:17:53.780Z,68.37
2023-03-28T08:20:23.444Z,68.26
2023-03-28T08:23:02.745Z,67.82
2023-03-28T08:25:37.785Z,68.36
2023-03-28T08:28:07.346Z,68.83
2023-03-28T08:30:36.735Z,68.22
2023-03-28T08:33:05.743Z,67.92
2023-03-28T08:35:35.149Z,68.00
2023-03-28T08:38:10.472Z,68.23
2023-03-28T08:40:45.342Z,67.82
2023-03-28T08:43:44.865Z,67.20
2023-03-28T08:46:16.553Z,66.77
2023-03-28T08:48:47.557Z,66.99
2023-03-28T08:51:22.737Z,66.93
2023-03-28T08:54:03.817Z,66.94
2023-03-28T08:56:35.976Z,67.04
2023-03-28T08:59:08.327Z,67.43
2023-03-28T09:01:39.380Z,67.67
2023-03-28T09:04:13.315Z,67.97
2023-03-28T09:06:48.725Z,67.73
2023-03-28T09:09:34.438Z,67.70
2023-03-28T09:12:40.341Z,67.88
2023-03-28T09:15:24.286Z,67.95
2023-03-28T09:18:23.035Z,67.38
2023-03-28T09:20:59.778Z,66.04
2023-03-28T09:23:56.307Z,65.50
2023-03-28T09:26:52.175Z,65.87
2023-03-28T09:29:25.004Z,66.16
2023-03-28T09:32:00.231Z,66.27
2023-03-28T09:34:37.560Z,66.38
2023-03-28T09:37:22.523Z,66.75
2023-03-28T09:39:54.175Z,66.82
2023-03-28T09:42:35.775Z,66.96
2023-03-28T09:45:36.870Z,67.21
2023-03-28T09:48:28.406Z,67.53
2023-03-28T09:50:58.724Z,67.73
2023-03-28T09:53:32.936Z,67.64
2023-03-28T09:56:05.951Z,67.56
2023-03-28T09:58:51.701Z,67.63
2023-03-28T10:01:41.998Z,67.55
2023-03-28T10:04:36.950Z,67.66
2023-03-28T10:07:33.112Z,67.88
2023-03-28T10:10:22.129Z,68.06
2023-03-28T10:12:58.902Z,68.17
2023-03-28T10:15:35.214Z,68.37
2023-03-28T10:18:21.030Z,68.45
2023-03-28T10:21:09.849Z,68.48
2023-03-28T10:23:43.814Z,68.22
2023-03-28T10:26:22.265Z,68.06
2023-03-28T10:28:53.917Z,68.01
2023-03-28T10:31:28.816Z,68.00
2023-03-28T10:34:26.125Z,67.99
2023-03-28T10:37:23.233Z,68.13
2023-03-28T10:40:01.809Z,68.11
2023-03-28T10:43:12.958Z,68.06
2023-03-28T10:46:20.552Z,68.06
2023-03-28T10:49:22.295Z,68.13
2023-03-28T10:51:58.493Z,68.18
2023-03-28T10:54:42.658Z,68.14
2023-03-28T10:57:30.792Z,68.16
2023-03-28T11:00:09.965Z,68.21
2023-03-28T11:03:16.367Z,68.08
2023-03-28T11:06:08.059Z,67.96
2023-03-28T11:08:47.986Z,67.81
2023-03-28T11:11:39.182Z,67.80
2023-03-28T11:14:18.212Z,67.69
2023-03-28T11:16:58.426Z,67.61
2023-03-28T11:20:02.037Z,67.69
2023-03-28T11:22:58.802Z,67.56
2023-03-28T11:25:42.963Z,67.61
2023-03-28T11:28:44.081Z,67.39
2023-03-28T11:31:24.712Z,67.68
2023-03-28T11:34:11.673Z,67.59
2023-03-28T11:36:48.250Z,67.32
2023-03-28T11:39:26.564Z,67.40
2023-03-28T11:41:59.533Z,67.23
2023-03-28T11:44:52.607Z,67.32
2023-03-28T11:47:27.084Z,67.30
2023-03-28T11:50:07.716Z,67.25
2023-03-28T11:52:59.391Z,67.13
2023-03-28T11:55:34.468Z,67.19
2023-03-28T11:58:12.375Z,67.15
2023-03-28T12:00:46.829Z,66.88
2023-03-28T12:03:22.996Z,66.64
2023-03-28T12:06:04.822Z,66.74
2023-03-28T12:08:39.377Z,66.87
2023-03-28T12:11:22.318Z,66.89
2023-03-28T12:14:11.416Z,66.76
2023-03-28T12:16:47.086Z,66.66
2023-03-28T12:19:21.702Z,66.50
2023-03-28T12:22:00.940Z,66.21
2023-03-28T12:24:47.995Z,65.93
2023-03-28T12:27:36.389Z,66.14
2023-03-28T12:30:20.251Z,66.09
2023-03-28T12:32:59.166Z,65.97
2023-03-28T12:35:40.034Z,65.93
2023-03-28T12:38:28.933Z,65.85
2023-03-28T12:41:08.728Z,65.84
2023-03-28T12:43:46.641Z,65.62
2023-03-28T12:46:24.925Z,65.54
2023-03-28T12:48:59.053Z,65.23
2023-03-28T12:51:38.300Z,65.12
2023-03-28T12:54:22.183Z,65.12
2023-03-28T12:57:04.762Z,65.00
2023-03-28T12:59:58.793Z,65.02
2023-03-28T13:02:46.868Z,64.91
2023-03-28T13:05:20.373Z,64.84
2023-03-28T13:07:59.831Z,64.67
2023-03-28T13:10:36.488Z,64.44
2023-03-28T13:13:19.223Z,64.68
2023-03-28T13:16:01.751Z,64.73
2023-03-28T13:18:33.300Z,64.68
2023-03-28T13:21:06.628Z,64.36
2023-03-28T13:23:47.505Z,64.13
2023-03-28T13:26:17.276Z,64.10
2023-03-28T13:28:50.472Z,64.03
2023-03-28T13:31:25.166Z,64.31
2023-03-28T13:34:00.353Z,64.35
2023-03-28T13:36:49.925Z,64.46
2023-03-28T13:39:24.419Z,64.34
2023-03-28T13:42:00.274Z,64.55
2023-03-28T13:44:42.688Z,64.68
2023-03-28T13:47:21.344Z,64.29
2023-03-28T13:49:57.963Z,64.18
2023-03-28T13:52:27.915Z,64.09
2023-03-28T13:55:19.145Z,63.89
2023-03-28T13:57:49.966Z,63.95
2023-03-28T14:00:23.363Z,63.96
2023-03-28T14:03:00.747Z,64.04
2023-03-28T14:05:31.493Z,64.27
2023-03-28T14:08:23.187Z,64.14
2023-03-28T14:10:52.423Z,64.16
2023-03-28T14:13:24.911Z,64.11
2023-03-28T14:15:54.973Z,63.96
2023-03-28T14:18:36.015Z,64.03
2023-03-28T14:21:07.095Z,64.08
2023-03-28T14:23:38.649Z,64.08
2023-03-28T14:26:16.300Z,63.75
2023-03-28T14:28:47.111Z,63.62
2023-03-28T14:31:30.125Z,63.47
2023-03-28T14:34:17.739Z,63.43
2023-03-28T14:37:01.909Z,63.49
2023-03-28T14:39:33.900Z,63.56
2023-03-28T14:42:06.367Z,63.51
2023-03-28T14:44:41.001Z,63.61
2023-03-28T14:47:16.766Z,63.49
2023-03-28T14:49:46.414Z,63.67
2023-03-28T14:52:25.030Z,63.65
2023-03-28T14:54:54.878Z,63.56
2023-03-28T14:57:24.896Z,63.45
2023-03-28T14:59:57.043Z,63.39
2023-03-28T15:02:31.194Z,63.28
2023-03-28T15:05:02.558Z,63.34
2023-03-28T15:07:35.070Z,63.54
2023-03-28T15:10:11.248Z,63.46
2023-03-28T15:12:48.374Z,63.48
2023-03-28T15:15:24.339Z,63.40
2023-03-28T15:17:55.781Z,63.32
2023-03-28T15:20:30.908Z,63.25
2023-03-28T15:23:03.897Z,63.13
2023-03-28T15:25:34.374Z,63.17
2023-03-28T15:28:10.038Z,63.19
2023-03-28T15:30:44.546Z,63.17
2023-03-28T15:33:18.357Z,63.30
2023-03-28T15:35:48.744Z,63.23
2023-03-28T15:38:22.629Z,63.22
2023-03-28T15:41:07.502Z,63.30
2023-03-28T15:43:47.324Z,63.37
2023-03-28T15:46:19.096Z,63.60
2023-03-28T15:48:48.817Z,63.53
2023-03-28T15:51:23.577Z,63.59
2023-03-28T15:53:53.662Z,63.52
2023-03-28T15:56:26.569Z,63.38
2023-03-28T15:59:00.640Z,63.32
2023-03-28T16:01:38.890Z,63.25
2023-03-28T16:04:30.587Z,63.32
2023-03-28T16:07:12.595Z,62.85
2023-03-28T16:09:44.558Z,62.99
2023-03-28T16:12:17.683Z,62.95
2023-03-28T16:14:48.882Z,62.90
2023-03-28T16:17:43.034Z,63.14
2023-03-28T16:20:20.810Z,63.22
2023-03-28T16:22:50.719Z,63.45
2023-03-28T16:25:19.598Z,63.51
2023-03-28T16:27:48.642Z,63.55
2023-03-28T16:30:21.180Z,63.81
2023-03-28T16:32:50.630Z,63.89
2023-03-28T16:35:19.711Z,63.98
2023-03-28T16:37:48.665Z,64.20
2023-03-28T16:40:18.627Z,64.07
2023-03-28T16:42:48.149Z,64.16
2023-03-28T16:45:20.273Z,64.19
2023-03-28T16:47:51.944Z,64.33
2023-03-28T16:50:21.096Z,64.33
2023-03-28T16:52:50.262Z,64.48
2023-03-28T16:55:19.430Z,64.51
2023-03-28T16:57:48.810Z,64.54
2023-03-28T17:00:20.504Z,64.59
2023-03-28T17:02:49.607Z,64.53
2023-03-28T17:05:18.920Z,64.48
2023-03-28T17:07:47.936Z,64.56
2023-03-28T17:10:17.958Z,64.44
2023-03-28T17:12:47.597Z,64.56
2023-03-28T17:15:17.392Z,64.53
2023-03-28T17:17:46.258Z,64.66
2023-03-28T17:20:21.978Z,64.63
2023-03-28T17:22:51.140Z,64.82
2023-03-28T17:25:20.406Z,64.77
2023-03-28T17:27:50.107Z,64.82
2023-03-28T17:30:19.886Z,64.82
2023-03-28T17:32:50.718Z,64.78
2023-03-28T17:35:21.099Z,64.80
2023-03-28T17:37:52.342Z,64.78
2023-03-28T17:40:21.308Z,64.78
2023-03-28T17:42:56.740Z,64.73
2023-03-28T17:45:26.113Z,64.84
2023-03-28T17:47:55.903Z,64.91
2023-03-28T17:50:25.173Z,64.86
2023-03-28T17:52:54.387Z,64.90
2023-03-28T17:55:23.842Z,64.89
2023-03-28T17:57:53.132Z,65.00
2023-03-28T18:00:23.384Z,65.01
2023-03-28T18:02:52.820Z,64.95
2023-03-28T18:05:53.269Z,64.88
2023-03-28T18:08:22.972Z,65.06
2023-03-28T18:10:51.723Z,65.13
2023-03-28T18:13:20.904Z,65.20
2023-03-28T18:15:50.286Z,65.16
2023-03-28T18:18:19.134Z,65.24
2023-03-28T18:20:49.123Z,65.19
2023-03-28T18:23:20.571Z,65.24
2023-03-28T18:25:51.688Z,65.14
2023-03-28T18:28:21.729Z,65.27
2023-03-28T18:30:50.952Z,65.21
2023-03-28T18:33:21.432Z,65.22
2023-03-28T18:35:50.183Z,65.23
2023-03-28T18:38:19.564Z,65.32
2023-03-28T18:40:52.853Z,65.16
2023-03-28T18:43:21.756Z,65.31
2023-03-28T18:45:54.700Z,65.31
2023-03-28T18:48:24.126Z,65.32
2023-03-28T18:50:54.351Z,65.36
2023-03-28T18:53:24.719Z,65.38
2023-03-28T18:55:54.163Z,65.40
2023-03-28T18:58:25.485Z,65.47
2023-03-28T19:00:58.561Z,65.45
2023-03-28T19:03:31.229Z,65.39
2023-03-28T19:06:02.313Z,65.46
2023-03-28T19:08:33.267Z,65.48
2023-03-28T19:11:08.140Z,65.64
2023-03-28T19:13:37.206Z,65.55
2023-03-28T19:16:08.542Z,65.40
2023-03-28T19:18:41.868Z,65.69
2023-03-28T19:21:12.823Z,65.56
2023-03-28T19:23:43.326Z,65.55
2023-03-28T19:26:14.445Z,65.66
2023-03-28T19:28:46.458Z,65.66
2023-03-28T19:31:17.363Z,65.74
2023-03-28T19:33:48.765Z,65.71
2023-03-28T19:36:18.860Z,65.80
2023-03-28T19:38:47.977Z,65.68
2023-03-28T19:41:19.979Z,65.79
2023-03-28T19:43:50.902Z,65.79
2023-03-28T19:46:24.889Z,65.67
2023-03-28T19:48:57.672Z,65.82
2023-03-28T19:51:27.828Z,65.77
2023-03-28T19:53:58.068Z,65.71
2023-03-28T19:56:27.535Z,65.72
2023-03-28T19:58:56.409Z,65.71
2023-03-28T20:01:25.553Z,65.81
2023-03-28T20:03:54.697Z,65.82
2023-03-28T20:06:24.697Z,65.91
2023-03-28T20:08:53.547Z,65.87
2023-03-28T20:11:22.605Z,65.85
2023-03-28T20:13:51.772Z,65.85
2023-03-28T20:16:20.833Z,65.79
2023-03-28T20:18:50.186Z,65.81
2023-03-28T20:21:18.818Z,65.78
2023-03-28T20:23:47.812Z,65.76
2023-03-28T20:26:19.397Z,65.68
2023-03-28T20:28:52.831Z,65.74
2023-03-28T20:31:22.568Z,65.71
2023-03-28T20:33:53.075Z,65.73
2023-03-28T20:36:22.069Z,65.85
2023-03-28T20:38:50.964Z,65.81
2023-03-28T20:41:19.748Z,65.81
2023-03-28T20:43:49.747Z,65.86
2023-03-28T20:46:19.373Z,65.89
2023-03-28T20:48:52.907Z,65.88
2023-03-28T20:51:23.281Z,65.83
2023-03-28T20:53:55.137Z,65.85
2023-03-28T20:56:24.482Z,65.66
2023-03-28T20:58:54.284Z,65.72
2023-03-28T21:01:27.650Z,65.79
2023-03-28T21:04:01.813Z,65.78
2023-03-28T21:06:34.361Z,65.79
2023-03-28T21:09:06.751Z,65.77
2023-03-28T21:11:37.589Z,65.76
2023-03-28T21:14:08.332Z,65.78
2023-03-28T21:16:39.147Z,65.81
2023-03-28T21:19:13.485Z,65.71
2023-03-28T21:21:42.358Z,65.76
2023-03-28T21:24:17.240Z,65.73
2023-03-28T21:26:46.134Z,65.77
2023-03-28T21:29:15.960Z,65.85
2023-03-28T21:31:44.671Z,65.74
2023-03-28T21:34:16.521Z,65.61
2023-03-28T21:36:45.215Z,65.69
2023-03-28T21:39:20.104Z,65.78
2023-03-28T21:41:48.805Z,65.61
2023-03-28T21:44:23.945Z,65.64
2023-03-28T21:46:52.768Z,65.57
2023-03-28T21:49:30.143Z,65.56
2023-03-28T21:51:58.954Z,65.55
2023-03-28T21:54:27.800Z,65.65
2023-03-28T21:56:57.912Z,65.55
2023-03-28T21:59:27.832Z,65.60
2023-03-28T22:01:56.551Z,65.56
2023-03-28T22:04:27.384Z,65.58
2023-03-28T22:06:56.799Z,65.57
2023-03-28T22:09:27.564Z,65.63
2023-03-28T22:11:56.263Z,65.60
2023-03-28T22:14:26.000Z,65.63
2023-03-28T22:16:54.633Z,65.43
2023-03-28T22:19:29.520Z,65.50
2023-03-28T22:22:00.369Z,65.52
2023-03-28T22:24:29.784Z,65.40
2023-03-28T22:26:58.544Z,65.50
2023-03-28T22:29:27.182Z,65.50
2023-03-28T22:31:56.300Z,65.47
2023-03-28T22:34:28.444Z,65.47
2023-03-28T22:36:57.640Z,65.41
2023-03-28T22:39:26.580Z,65.45
2023-03-28T22:41:55.369Z,65.32
2023-03-28T22:44:26.737Z,65.48
2023-03-28T22:47:01.417Z,65.45
2023-03-28T22:49:33.568Z,65.37
2023-03-28T22:52:06.351Z,65.36
2023-03-28T22:54:37.490Z,65.35
2023-03-28T22:57:10.094Z,65.43
2023-03-28T23:00:11.762Z,65.55
2023-03-28T23:02:41.265Z,65.65
2023-03-28T23:05:12.172Z,65.62
2023-03-28T23:07:44.142Z,65.55
2023-03-28T23:10:16.212Z,65.50
2023-03-28T23:12:46.586Z,65.59
2023-03-28T23:15:17.507Z,65.49
2023-03-28T23:17:47.002Z,65.60
2023-03-28T23:20:19.057Z,65.41
2023-03-28T23:22:48.887Z,65.48
2023-03-28T23:25:19.267Z,65.45
2023-03-28T23:27:48.025Z,65.39
2023-03-28T23:30:17.654Z,65.41
2023-03-28T23:32:46.802Z,65.47
2023-03-28T23:35:16.614Z,65.49
2023-03-28T23:37:45.300Z,65.50
2023-03-28T23:40:20.257Z,65.48
2023-03-28T23:42:49.645Z,65.44
2023-03-28T23:45:19.829Z,65.57
2023-03-28T23:47:48.495Z,65.46
2023-03-28T23:50:17.943Z,65.41
2023-03-28T23:52:46.828Z,65.46
2023-03-28T23:55:17.512Z,65.40
2023-03-28T23:57:46.761Z,65.60
